This is the latest recevied weather packets stored in our database for station/object WV5G-13. If no packets are shown the sender has not sent any weather packets the latest 10 day(s).
| Time | Temp. | Humidity | Pressure | Rain* | Wind** | Luminosity | Snow |
|---|---|---|---|---|---|---|---|
| 1777914609 | 27.22° C | 23% | 1006.4 hPa | 0 mm | - | 600 W/m² | - |
| 1777914305 | 27.78° C | 23% | 1006.4 hPa | 0 mm | - | 682 W/m² | - |
| 1777914003 | 28.33° C | 24% | 1006.4 hPa | 0 mm | - | 786 W/m² | - |
| 1777913698 | 27.78° C | 24% | 1006.6 hPa | 0 mm | - | 760 W/m² | - |
| 1777913396 | 27.22° C | 24% | 1006.3 hPa | 0 mm | - | 781 W/m² | - |
| 1777913092 | 27.22° C | 23% | 1006.7 hPa | 0 mm | - | 729 W/m² | - |
| 1777912789 | 27.22° C | 24% | 1006.7 hPa | 0 mm | - | 770 W/m² | - |
| 1777912484 | 26.67° C | 24% | 1006.9 hPa | 0 mm | - | 591 W/m² | - |
| 1777912181 | 26.67° C | 26% | 1006.6 hPa | 0 mm | - | 720 W/m² | - |
| 1777911877 | 26.67° C | 25% | 1006.4 hPa | 0 mm | - | 722 W/m² | - |
| 1777911574 | 26.11° C | 27% | 1006.4 hPa | 0 mm | - | 556 W/m² | - |
| 1777911270 | 26.11° C | 25% | 1006.9 hPa | 0 mm | - | 731 W/m² | - |
| 1777910967 | 26.11° C | 28% | 1006.7 hPa | 0 mm | - | 683 W/m² | - |
| 1777910665 | 25.56° C | 28% | 1006.8 hPa | 0 mm | - | 710 W/m² | - |
| 1777910361 | 25° C | 28% | 1006.6 hPa | 0 mm | - | 476 W/m² | - |
| 1777910058 | 25° C | 30% | 1007 hPa | 0 mm | - | 531 W/m² | - |
| 1777909755 | 24.44° C | 31% | 1006.7 hPa | 0 mm | - | 576 W/m² | - |
| 1777909452 | 24.44° C | 31% | 1006.9 hPa | 0 mm | - | 494 W/m² | - |
| 1777909150 | 23.89° C | 32% | 1006.7 hPa | 0 mm | - | 621 W/m² | - |
| 1777908848 | 23.89° C | 34% | 1006.9 hPa | 0 mm | - | 520 W/m² | - |
| 1777908544 | 23.33° C | 34% | 1007 hPa | 0 mm | - | 470 W/m² | - |
| 1777908242 | 22.78° C | 36% | 1006.8 hPa | 0 mm | - | 419 W/m² | - |
| 1777907938 | 23.33° C | 36% | 1006.9 hPa | 0 mm | - | 533 W/m² | - |
| 1777907633 | 22.78° C | 37% | 1007.1 hPa | 0 mm | - | 418 W/m² | - |
| 1777907329 | 22.78° C | 39% | 1007.1 hPa | 0 mm | - | 461 W/m² | - |
* Rain latest hour (hover to see other rain measurements)
** Current wind speed in m/s (hover to see current wind gust speed)